Haverhill, Florida
Current Conditions -  °F | °C
As of 12:53 AM on Saturday 25 Oct 2014 (Local Time) from KPBI Reporting Station
Broken Clouds Broken Clouds  
Wind Chill: 76°   Ceiling: 4300
Heat Index: 76°   Visibility: 10mi
Dew Point: 64°   Wind: 9mph
Humidity: 67%   Direction: 360°N
Pressure: 29.87"   Gusts: NA
Location:  26.6599°N, 80.1276°W
Report Text: KPBI 250453Z 36008KT 10SM BKN043 24/18 A2987 RMK AO2 SLP115 T02440178 402720244
Loading
Personal Weather Stations






























Interactive Weather Map
Tropical Storm Tracking
New forecast layout! Learn more

10-Day Weather Forecast

Advertisements
Track Severe Weather on mobile